Погода Седлинна неделю

Мазовецкое воеводство, Польша

24 - 30 мая
  • 24мая
    Сегодня
    +15°
    +28°
    Ясно и безоблачно
    ВремяПогодаТемператураВлажностьДавлениеВетер, м/сВероятность осадков
    02:00Облачно с прояснениями+15°C97 %755 мм2.1 м/с28 %
    05:00Ясно и безоблачно+14°C97 %755 мм0.7 м/с21 %
    08:00Практически безоблачно+19°C87 %756 мм1.3 м/с6 %
    11:00Ясно и безоблачно+23°C63 %756 мм1.6 м/с2 %
    14:00Ясно и безоблачно+26°C47 %756 мм2.3 м/с2 %
    17:00Ясно и безоблачно+27°C33 %754 мм3.8 м/с1 %
    20:00Практически безоблачно+24°C44 %755 мм2.7 м/с4 %
    23:00Практически безоблачно+19°C61 %755 мм2.7 м/с2 %
  • 25мая
    Суббота
    +13°
    +26°
    Облачно с прояснениями
    ВремяПогодаТемператураВлажностьДавлениеВетер, м/сВероятность осадков
    02:00Облачно с прояснениями+17°C61 %755 мм3.1 м/с2 %
    05:00Облачно с прояснениями+15°C71 %756 мм3.0 м/с2 %
    08:00Ясно и безоблачно+20°C68 %756 мм2.7 м/с2 %
    11:00Облачно с прояснениями+24°C50 %756 мм3.3 м/с2 %
    14:00Облачно с прояснениями+25°C50 %756 мм3.0 м/с40 %
    17:00Небольшая облачность+24°C59 %755 мм0.8 м/с45 %
    20:00Облачно с прояснениями+21°C62 %756 мм5.3 м/с38 %
    23:00Практически безоблачно+15°C93 %756 мм0.9 м/с13 %
  • 26мая
    Воскресенье
    +13°
    +27°
    Облачно с прояснениями
    ВремяПогодаТемператураВлажностьДавлениеВетер, м/сВероятность осадков
    02:00Облачно с прояснениями+14°C92 %756 мм1.9 м/с2 %
    05:00Ясно и безоблачно+14°C94 %756 мм2.1 м/с2 %
    08:00Облачно с прояснениями+19°C76 %757 мм1.4 м/с2 %
    11:00Небольшая облачность+24°C50 %757 мм2.7 м/с17 %
    14:00Облачно с прояснениями+26°C38 %757 мм3.1 м/с22 %
    17:00Небольшая облачность+25°C37 %756 мм2.8 м/с37 %
    20:00Небольшая облачность+21°C67 %757 мм1.0 м/с28 %
    23:00Небольшая облачность+18°C68 %757 мм2.1 м/с3 %
  • 27мая
    Понедельник
    +13°
    +28°
    Ясно и безоблачно
    ВремяПогодаТемператураВлажностьДавлениеВетер, м/сВероятность осадков
    02:00Ясно и безоблачно+16°C62 %757 мм2.9 м/с2 %
    05:00Ясно и безоблачно+14°C57 %757 мм3.5 м/с2 %
    08:00Ясно и безоблачно+20°C51 %758 мм3.0 м/с2 %
    11:00Ясно и безоблачно+25°C36 %758 мм3.6 м/с4 %
    14:00Ясно и безоблачно+27°C27 %757 мм3.5 м/с5 %
    17:00Ясно и безоблачно+27°C24 %756 мм3.6 м/с9 %
    20:00Ясно и безоблачно+23°C35 %756 мм3.5 м/с3 %
    23:00Ясно и безоблачно+19°C38 %756 мм3.8 м/с2 %
  • 28мая
    Вторник
    +13°
    +28°
    Облачно с прояснениями
    ВремяПогодаТемператураВлажностьДавлениеВетер, м/сВероятность осадков
    02:00Ясно и безоблачно+16°C49 %756 мм3.4 м/с2 %
    05:00Ясно и безоблачно+14°C57 %756 мм3.1 м/с2 %
    08:00Ясно и безоблачно+20°C53 %756 мм3.0 м/с2 %
    11:00Ясно и безоблачно+26°C28 %756 мм4.4 м/с2 %
    14:00Облачно с прояснениями+28°C22 %755 мм4.7 м/с3 %
    17:00Небольшая облачность+27°C23 %754 мм4.5 м/с12 %
    20:00Практически безоблачно+23°C37 %754 мм2.4 м/с9 %
    23:00Ясно и безоблачно+19°C49 %755 мм3.4 м/с2 %
Мы используем cookies
Соглашаюсь